Avalon Express — WDD7919 — position and weather

sailwx.info

Track history (hours):
 
Tides and Currents Weather Stations Pressure Air Temp Water Temp Dewpoint Dewpoint Depression Visibility Wind Speed Wind Dir Waves Ship Positions

Avalon Express

Owner: RGWT INC, San Pedro, CA. More information available from US FCC via Universal Licensing System and Coast Guard Vessel Documentation Center.

Last reported at 2014-Oct-20 00:16 UTC. Time now 2014-Oct-20 11:19 UTC.
Position N 33°45' W 118°16'.

Type: High speed craft. MMSI: 367192940.

Date/timePositionNaut miles runAvg speedWind from/ knotsBaromVisibWave heightAir tempDewpointWater temp
2014-Oct-20 00:16N 33°45' W 118°16'0 0.0
2014-Oct-19 23:33N 33°45' W 118°16'2115.7
2014-Oct-19 22:11N 33°24' W 118°17'3 3.0
2014-Oct-19 21:10N 33°21' W 118°19'2421.5
2014-Oct-19 20:04N 33°45' W 118°17'0 0.8
2014-Oct-19 19:33N 33°45' W 118°16'3 2.8
2014-Oct-19 18:33N 33°42' W 118°15'2216.0
2014-Oct-19 17:11N 33°21' W 118°19'2224.7
2014-Oct-19 16:18N 33°43' W 118°15'3 3.5
2014-Oct-19 15:33N 33°45' W 118°16'0 0.0
2014-Oct-19 01:29N 33°45' W 118°16'0 0.1
2014-Oct-18 22:32N 33°45' W 118°17'0 0.4
2014-Oct-18 21:33N 33°45' W 118°16'0 0.0
2014-Oct-18 17:34N 33°45' W 118°16'1 0.1
2014-Oct-18 05:30N 33°44' W 118°16'2317.8
2014-Oct-18 04:12N 33°21' W 118°19'2212.4
2014-Oct-18 02:27N 33°43' W 118°15'3 3.0
2014-Oct-18 01:34N 33°45' W 118°16'0 0.0
2014-Oct-16 01:33N 33°45' W 118°16'2 0.6
2014-Oct-15 22:12N 33°43' W 118°16'2 3.2
2014-Oct-15 21:34N 33°45' W 118°16'0 0.0
2014-Oct-15 20:34N 33°45' W 118°16'1 0.5
2014-Oct-15 19:33N 33°44' W 118°17'3 0.9
2014-Oct-15 16:23N 33°42' W 118°15'3 4.2
2014-Oct-15 15:33N 33°45' W 118°16'0 0.0
2014-Oct-15 14:33N 33°45' W 118°16'0 0.0
2014-Oct-15 13:33N 33°45' W 118°16'0 0.0
2014-Oct-15 12:33N 33°45' W 118°16'  
2014-Oct-13 00:29N 33°45' W 118°16'0 0.1
2014-Oct-12 23:33N 33°45' W 118°16'1212.3
2014-Oct-12 22:33N 33°33' W 118°16'1212.2
2014-Oct-12 21:33N 33°21' W 118°19'1616.1
2014-Oct-12 20:34N 33°37' W 118°17'8 8.3
2014-Oct-12 19:33N 33°45' W 118°16'3 2.8
2014-Oct-12 18:34N 33°42' W 118°15'2222.1
2014-Oct-12 17:33N 33°21' W 118°19'1716.9
2014-Oct-12 16:33N 33°37' W 118°17'7 0.2
2014-Oct-11 04:04N 33°45' W 118°16'2313.8
2014-Oct-11 02:24N 33°22' W 118°21'1416.1
2014-Oct-11 01:33N 33°36' W 118°17'9 9.4
2014-Oct-11 00:33N 33°45' W 118°16'0 0.0
2014-Oct-10 23:33N 33°45' W 118°16'0 0.3
2014-Oct-10 22:33N 33°45' W 118°16'3 1.0
2014-Oct-10 19:28N 33°42' W 118°15'3 2.8
2014-Oct-10 18:16N 33°45' W 118°16'0 0.0
2014-Oct-10 17:33N 33°45' W 118°16'0 0.0
2014-Oct-10 16:33N 33°45' W 118°16'0 0.0
2014-Oct-10 15:33N 33°45' W 118°16'0 0.0
2014-Oct-10 14:33N 33°45' W 118°16'0 0.0
2014-Oct-10 13:33N 33°45' W 118°16'0 0.0
2014-Oct-10 03:04N 33°45' W 118°16'0 0.0
2014-Oct-10 02:33N 33°45' W 118°16'0 0.1
2014-Oct-10 01:33N 33°45' W 118°16'2119.5
2014-Oct-10 00:28N 33°24' W 118°18'  
Track history (hours):
 
Tides and Currents Weather Stations Pressure Air Temp Water Temp Dewpoint Dewpoint Depression Visibility Wind Speed Wind Dir Waves Ship Positions

Avalon Express

Owner: RGWT INC, San Pedro, CA. More information available from US FCC via Universal Licensing System and Coast Guard Vessel Documentation Center.

Last reported at 2014-Oct-20 00:16 UTC. Time now 2014-Oct-20 11:19 UTC.
Position N 33°45' W 118°16'.

Type: High speed craft. MMSI: 367192940.

Date/timePositionNaut miles runAvg speedWind from/ knotsBaromVisibWave heightAir tempDewpointWater temp
2014-Oct-20 00:16N 33°45' W 118°16'0 0.0
2014-Oct-19 23:33N 33°45' W 118°16'2115.7
2014-Oct-19 22:11N 33°24' W 118°17'3 3.0
2014-Oct-19 21:10N 33°21' W 118°19'2421.5
2014-Oct-19 20:04N 33°45' W 118°17'0 0.8
2014-Oct-19 19:33N 33°45' W 118°16'3 2.8
2014-Oct-19 18:33N 33°42' W 118°15'2216.0
2014-Oct-19 17:11N 33°21' W 118°19'2224.7
2014-Oct-19 16:18N 33°43' W 118°15'3 3.5
2014-Oct-19 15:33N 33°45' W 118°16'0 0.0
2014-Oct-19 01:29N 33°45' W 118°16'0 0.1
2014-Oct-18 22:32N 33°45' W 118°17'0 0.4
2014-Oct-18 21:33N 33°45' W 118°16'0 0.0
2014-Oct-18 17:34N 33°45' W 118°16'1 0.1
2014-Oct-18 05:30N 33°44' W 118°16'2317.8
2014-Oct-18 04:12N 33°21' W 118°19'2212.4
2014-Oct-18 02:27N 33°43' W 118°15'3 3.0
2014-Oct-18 01:34N 33°45' W 118°16'0 0.0
2014-Oct-16 01:33N 33°45' W 118°16'2 0.6
2014-Oct-15 22:12N 33°43' W 118°16'2 3.2
2014-Oct-15 21:34N 33°45' W 118°16'0 0.0
2014-Oct-15 20:34N 33°45' W 118°16'1 0.5
2014-Oct-15 19:33N 33°44' W 118°17'3 0.9
2014-Oct-15 16:23N 33°42' W 118°15'3 4.2
2014-Oct-15 15:33N 33°45' W 118°16'0 0.0
2014-Oct-15 14:33N 33°45' W 118°16'0 0.0
2014-Oct-15 13:33N 33°45' W 118°16'0 0.0
2014-Oct-15 12:33N 33°45' W 118°16'  
2014-Oct-13 00:29N 33°45' W 118°16'0 0.1
2014-Oct-12 23:33N 33°45' W 118°16'1212.3
2014-Oct-12 22:33N 33°33' W 118°16'1212.2
2014-Oct-12 21:33N 33°21' W 118°19'1616.1
2014-Oct-12 20:34N 33°37' W 118°17'8 8.3
2014-Oct-12 19:33N 33°45' W 118°16'3 2.8
2014-Oct-12 18:34N 33°42' W 118°15'2222.1
2014-Oct-12 17:33N 33°21' W 118°19'1716.9
2014-Oct-12 16:33N 33°37' W 118°17'7 0.2
2014-Oct-11 04:04N 33°45' W 118°16'2313.8
2014-Oct-11 02:24N 33°22' W 118°21'1416.1
2014-Oct-11 01:33N 33°36' W 118°17'9 9.4
2014-Oct-11 00:33N 33°45' W 118°16'0 0.0
2014-Oct-10 23:33N 33°45' W 118°16'0 0.3
2014-Oct-10 22:33N 33°45' W 118°16'3 1.0
2014-Oct-10 19:28N 33°42' W 118°15'3 2.8
2014-Oct-10 18:16N 33°45' W 118°16'0 0.0
2014-Oct-10 17:33N 33°45' W 118°16'0 0.0
2014-Oct-10 16:33N 33°45' W 118°16'0 0.0
2014-Oct-10 15:33N 33°45' W 118°16'0 0.0
2014-Oct-10 14:33N 33°45' W 118°16'0 0.0
2014-Oct-10 13:33N 33°45' W 118°16'0 0.0
2014-Oct-10 03:04N 33°45' W 118°16'0 0.0
2014-Oct-10 02:33N 33°45' W 118°16'0 0.1
2014-Oct-10 01:33N 33°45' W 118°16'2119.5
2014-Oct-10 00:28N 33°24' W 118°18'  

Dump ship's entire track history